createdAt,value
2016-07-17T00:00:04.233Z,20.09
2016-07-17T00:01:04.290Z,20.13
2016-07-17T00:02:04.247Z,20.11
2016-07-17T00:03:04.273Z,20.1
2016-07-17T00:04:04.271Z,20.1
2016-07-17T00:05:04.280Z,19.96
2016-07-17T00:06:04.338Z,20.13
2016-07-17T00:07:04.280Z,20.13
2016-07-17T00:08:04.566Z,20.07
2016-07-17T00:09:04.256Z,20.04
2016-07-17T00:10:04.554Z,20.07
2016-07-17T00:11:04.297Z,20
2016-07-17T00:12:04.284Z,20.03
2016-07-17T00:13:04.395Z,20.02
2016-07-17T00:14:04.269Z,20
2016-07-17T00:15:04.282Z,20.04
2016-07-17T00:16:04.277Z,20.11
2016-07-17T00:17:04.263Z,19.96
2016-07-17T00:18:04.290Z,20.07
2016-07-17T00:19:04.253Z,20.06
2016-07-17T00:20:04.254Z,20
2016-07-17T00:21:04.282Z,19.99
2016-07-17T00:22:04.274Z,19.95
2016-07-17T00:23:04.280Z,20.02
2016-07-17T00:24:04.252Z,20.04
2016-07-17T00:25:04.357Z,20.02
2016-07-17T00:26:04.320Z,20.03
2016-07-17T00:27:04.261Z,20.04
2016-07-17T00:28:04.287Z,20.06
2016-07-17T00:29:04.239Z,20
2016-07-17T00:30:04.277Z,20.04
2016-07-17T00:31:04.579Z,20.07
2016-07-17T00:32:04.464Z,20.07
2016-07-17T00:33:04.301Z,20.03
2016-07-17T00:34:04.282Z,20.11
2016-07-17T00:35:04.320Z,20.06
2016-07-17T00:36:04.277Z,20.03
2016-07-17T00:37:04.311Z,19.99
2016-07-17T00:38:04.333Z,20.1
2016-07-17T00:39:04.452Z,20.09
2016-07-17T00:40:04.270Z,20.03
2016-07-17T00:41:04.504Z,20
2016-07-17T00:42:04.554Z,19.99
2016-07-17T00:43:04.308Z,20.02
2016-07-17T00:44:04.292Z,19.99
2016-07-17T00:45:04.270Z,20.03
2016-07-17T00:46:04.260Z,20.11
2016-07-17T00:47:04.267Z,20.13
2016-07-17T00:48:04.284Z,20.06
2016-07-17T00:49:04.310Z,19.96
2016-07-17T00:50:04.356Z,20.1
2016-07-17T00:51:04.351Z,20.06
2016-07-17T00:52:04.270Z,20.04
2016-07-17T00:53:04.654Z,20.06
2016-07-17T00:54:04.413Z,20.13
2016-07-17T00:55:04.263Z,20.09
2016-07-17T00:56:04.867Z,20.09
2016-07-17T00:57:04.286Z,20.11
2016-07-17T00:58:04.281Z,20.04
2016-07-17T00:59:04.304Z,20.06
2016-07-17T01:00:04.285Z,20.07
2016-07-17T01:01:04.266Z,20.13
2016-07-17T01:02:04.632Z,20.04
2016-07-17T01:03:04.431Z,20.07
2016-07-17T01:04:04.333Z,20.04
2016-07-17T01:05:04.322Z,20
2016-07-17T01:06:04.347Z,20
2016-07-17T01:07:04.330Z,19.99
2016-07-17T01:08:04.320Z,19.99
2016-07-17T01:09:04.329Z,19.96
2016-07-17T01:10:04.303Z,20.04
2016-07-17T01:11:04.289Z,19.96
2016-07-17T01:12:04.298Z,19.99
2016-07-17T01:13:04.583Z,20.02
2016-07-17T01:14:04.353Z,19.95
2016-07-17T01:15:04.313Z,20
2016-07-17T01:16:04.288Z,19.92
2016-07-17T01:17:04.276Z,19.95
2016-07-17T01:18:04.572Z,19.86
2016-07-17T01:19:04.278Z,19.84
2016-07-17T01:20:04.346Z,19.96
2016-07-17T01:21:04.338Z,20
2016-07-17T01:22:04.304Z,20
2016-07-17T01:23:04.307Z,19.94
2016-07-17T01:24:04.289Z,20
2016-07-17T01:25:04.302Z,20.04
2016-07-17T01:26:04.288Z,20.02
2016-07-17T01:27:04.292Z,20
2016-07-17T01:28:04.380Z,20.04
2016-07-17T01:29:04.319Z,19.96
2016-07-17T01:30:04.324Z,19.99
2016-07-17T01:31:04.317Z,19.96
2016-07-17T01:32:04.307Z,19.99
2016-07-17T01:33:04.308Z,19.94
2016-07-17T01:34:04.275Z,20
2016-07-17T01:35:04.326Z,20.02
2016-07-17T01:36:04.318Z,20.03
2016-07-17T01:37:04.297Z,20
2016-07-17T01:38:04.317Z,19.95
2016-07-17T01:39:04.341Z,20.11
2016-07-17T01:40:04.336Z,20.04
2016-07-17T01:41:04.296Z,19.96
2016-07-17T01:42:04.297Z,20.02
2016-07-17T01:43:04.292Z,20
2016-07-17T01:44:04.318Z,19.99
2016-07-17T01:45:05.126Z,19.96
2016-07-17T01:46:04.612Z,19.95
2016-07-17T01:47:04.530Z,19.94
2016-07-17T01:48:04.432Z,19.99
2016-07-17T01:49:04.289Z,20.06
2016-07-17T01:50:04.312Z,20
2016-07-17T02:03:05.125Z,19.82
2016-07-17T02:03:22.173Z,19.84
2016-07-17T02:04:22.121Z,19.99
2016-07-17T02:05:22.177Z,19.91
2016-07-17T02:06:22.170Z,19.91
2016-07-17T02:07:22.461Z,19.81
2016-07-17T02:08:22.134Z,19.85
2016-07-17T02:09:22.195Z,19.88
2016-07-17T02:10:22.244Z,19.76
2016-07-17T02:11:22.149Z,19.77
2016-07-17T02:12:22.386Z,19.91
2016-07-17T02:13:22.175Z,19.73
2016-07-17T02:14:22.479Z,19.82
2016-07-17T02:15:22.169Z,19.82
2016-07-17T02:16:22.206Z,19.95
2016-07-17T02:17:22.219Z,19.73
2016-07-17T02:18:22.128Z,19.77
2016-07-17T02:19:22.204Z,19.88
2016-07-17T02:20:22.299Z,19.85
2016-07-17T02:21:22.181Z,19.74
2016-07-17T02:22:22.283Z,19.79
2016-07-17T02:23:22.723Z,19.89
2016-07-17T02:24:22.152Z,19.88
2016-07-17T02:25:22.166Z,19.79
2016-07-17T02:26:22.192Z,19.94
2016-07-17T02:27:22.160Z,19.85
2016-07-17T02:28:22.131Z,19.84
2016-07-17T02:29:22.175Z,19.86
2016-07-17T02:30:22.152Z,19.81
2016-07-17T02:31:22.194Z,19.66
2016-07-17T02:32:22.111Z,19.7
2016-07-17T02:33:22.160Z,19.69
2016-07-17T02:34:22.154Z,19.67
2016-07-17T02:35:22.251Z,19.66
2016-07-17T02:36:22.217Z,19.62
2016-07-17T02:37:22.284Z,19.52
2016-07-17T02:38:22.216Z,19.58
2016-07-17T02:39:22.230Z,19.52
2016-07-17T02:40:22.168Z,19.52
2016-07-17T02:41:22.232Z,19.44
2016-07-17T02:42:22.204Z,19.49
2016-07-17T02:43:22.219Z,19.45
2016-07-17T02:44:24.224Z,19.47
2016-07-17T02:45:22.188Z,19.47
2016-07-17T02:46:22.453Z,19.56
2016-07-17T02:47:22.156Z,19.52
2016-07-17T02:48:22.755Z,19.52
2016-07-17T02:49:22.182Z,19.58
2016-07-17T02:50:22.154Z,19.58
2016-07-17T02:51:22.189Z,19.56
2016-07-17T02:52:22.191Z,19.54
2016-07-17T02:53:22.440Z,19.49
2016-07-17T02:54:22.190Z,19.54
2016-07-17T02:55:22.198Z,19.67
2016-07-17T02:56:22.200Z,19.67
2016-07-17T02:57:22.168Z,19.64
2016-07-17T02:58:22.258Z,19.64
2016-07-17T02:59:22.248Z,19.67
2016-07-17T03:00:22.295Z,19.7
2016-07-17T03:01:22.702Z,19.69
2016-07-17T03:02:22.376Z,19.7
2016-07-17T03:03:22.161Z,19.64
2016-07-17T03:04:22.197Z,19.7
2016-07-17T03:05:22.287Z,19.76
2016-07-17T03:06:22.210Z,19.7
2016-07-17T03:07:22.175Z,19.69
2016-07-17T03:08:22.347Z,19.69
2016-07-17T03:09:22.265Z,19.67
2016-07-17T03:10:24.176Z,19.63
2016-07-17T03:11:22.198Z,19.66
2016-07-17T03:12:22.216Z,19.67
2016-07-17T03:13:22.213Z,19.76
2016-07-17T03:14:22.251Z,19.69
2016-07-17T03:15:22.196Z,19.66
2016-07-17T03:16:22.189Z,19.66
2016-07-17T03:17:22.226Z,19.59
2016-07-17T03:18:22.242Z,19.59
2016-07-17T03:19:22.234Z,19.67
2016-07-17T03:20:22.150Z,19.69
2016-07-17T03:21:22.216Z,19.67
2016-07-17T03:22:22.151Z,19.67
2016-07-17T03:23:22.338Z,19.58
2016-07-17T03:24:22.497Z,19.71
2016-07-17T03:25:22.180Z,19.66
2016-07-17T03:26:22.194Z,19.7
2016-07-17T03:27:22.283Z,19.67
2016-07-17T03:28:22.206Z,19.74
2016-07-17T03:29:22.199Z,19.7
2016-07-17T03:30:22.213Z,19.54
2016-07-17T03:31:22.341Z,19.58
2016-07-17T03:32:22.196Z,19.59
2016-07-17T03:33:22.217Z,19.69
2016-07-17T03:34:22.313Z,19.66
2016-07-17T03:35:22.295Z,19.64
2016-07-17T03:36:22.335Z,19.67
2016-07-17T03:37:22.331Z,19.64
2016-07-17T03:38:22.222Z,19.64
2016-07-17T03:39:22.249Z,19.69
2016-07-17T03:51:40.133Z,19.62
2016-07-17T03:52:40.133Z,19.58
2016-07-17T03:53:40.116Z,19.59
2016-07-17T03:54:40.140Z,19.63
2016-07-17T03:55:40.173Z,19.63
2016-07-17T03:56:40.104Z,19.56
2016-07-17T03:57:40.341Z,19.59
2016-07-17T03:58:40.122Z,19.58
2016-07-17T03:59:40.308Z,19.62
2016-07-17T04:00:40.145Z,19.63
2016-07-17T04:01:40.251Z,19.63
2016-07-17T04:02:40.362Z,19.64
2016-07-17T04:03:40.132Z,19.73
2016-07-17T04:04:40.151Z,19.71
2016-07-17T04:05:40.155Z,19.71
2016-07-17T04:06:40.160Z,19.63
2016-07-17T04:07:40.111Z,19.56
2016-07-17T04:08:40.198Z,19.56
2016-07-17T04:09:40.198Z,19.58
2016-07-17T04:10:40.231Z,19.7
2016-07-17T04:11:40.136Z,19.67
2016-07-17T04:12:40.320Z,19.7
2016-07-17T04:13:40.194Z,19.67
2016-07-17T04:26:41.037Z,19.71
2016-07-17T04:26:58.115Z,19.71
2016-07-17T04:27:58.094Z,19.71
2016-07-17T04:28:58.391Z,19.71
2016-07-17T04:29:58.170Z,19.7
2016-07-17T04:30:58.097Z,19.73
2016-07-17T04:31:59.618Z,19.67
2016-07-17T04:32:58.206Z,19.63
2016-07-17T04:33:58.268Z,19.67
2016-07-17T04:34:58.187Z,19.66
2016-07-17T04:35:58.112Z,19.77
2016-07-17T04:36:58.062Z,19.67
2016-07-17T04:37:58.134Z,19.73
2016-07-17T04:38:58.114Z,19.79
2016-07-17T04:39:58.728Z,19.7
2016-07-17T04:40:58.077Z,19.82
2016-07-17T04:41:58.062Z,19.74
2016-07-17T04:42:58.204Z,19.86
2016-07-17T04:43:58.161Z,19.76
2016-07-17T04:44:58.307Z,19.91
2016-07-17T04:45:58.188Z,19.89
2016-07-17T04:46:58.106Z,19.94
2016-07-17T04:47:58.132Z,19.76
2016-07-17T04:48:58.132Z,19.95
2016-07-17T04:49:58.111Z,19.82
2016-07-17T04:50:58.198Z,19.88
2016-07-17T04:51:58.093Z,19.86
2016-07-17T04:52:58.136Z,19.95
2016-07-17T04:53:58.393Z,19.89
2016-07-17T04:54:58.227Z,20
2016-07-17T04:55:58.252Z,19.92
2016-07-17T04:56:58.236Z,19.94
2016-07-17T04:57:58.099Z,19.88
2016-07-17T04:58:58.124Z,19.92
2016-07-17T04:59:58.142Z,19.89
2016-07-17T05:00:58.123Z,19.95
2016-07-17T05:01:58.446Z,19.99
2016-07-17T05:02:58.160Z,20
2016-07-17T05:03:58.155Z,20
2016-07-17T05:04:58.493Z,20
2016-07-17T05:05:58.642Z,20.03
2016-07-17T05:07:03.000Z,19.99
2016-07-17T05:08:00.611Z,20.03
2016-07-17T05:08:58.201Z,20.02
2016-07-17T05:09:58.343Z,20.07
2016-07-17T05:10:58.140Z,20.04
2016-07-17T05:11:58.473Z,20.22
2016-07-17T05:12:58.266Z,20.14
2016-07-17T05:14:00.786Z,20.14
2016-07-17T05:15:01.823Z,20.14
2016-07-17T05:16:02.858Z,20.19
2016-07-17T05:16:58.127Z,20.14
2016-07-17T05:17:58.752Z,20.16
2016-07-17T05:18:58.097Z,20.21
2016-07-17T05:19:58.121Z,20.19
2016-07-17T05:20:58.142Z,20.22
2016-07-17T05:21:58.438Z,20.29
2016-07-17T05:22:58.174Z,20.31
2016-07-17T05:23:58.148Z,20.32
2016-07-17T05:37:06.316Z,20.4
2016-07-17T05:37:40.053Z,20.5
2016-07-17T05:38:40.057Z,20.52
2016-07-17T05:39:39.929Z,20.52
2016-07-17T05:40:40.234Z,20.56
2016-07-17T05:41:39.929Z,20.58
2016-07-17T05:42:39.900Z,20.55
2016-07-17T05:44:46.237Z,20.5
2016-07-17T05:45:55.544Z,20.5
2016-07-17T05:46:37.807Z,20.51
2016-07-17T05:47:31.873Z,20.5
2016-07-17T05:48:31.350Z,20.51
2016-07-17T05:49:31.252Z,20.52
2016-07-17T05:50:41.422Z,20.63
2016-07-17T05:51:33.220Z,20.67
2016-07-17T05:52:31.481Z,20.81
2016-07-17T05:53:31.254Z,20.85
2016-07-17T05:54:31.339Z,20.97
2016-07-17T05:55:31.359Z,21
2016-07-17T05:56:31.468Z,21.05
2016-07-17T05:57:31.340Z,21.06
2016-07-17T05:58:31.270Z,20.97
2016-07-17T06:00:19.452Z,21.06
2016-07-17T06:00:37.424Z,21.09
2016-07-17T06:01:37.422Z,21.06
2016-07-17T06:02:37.679Z,20.93
2016-07-17T06:03:40.885Z,20.96
2016-07-17T06:04:37.385Z,20.97
2016-07-17T06:05:39.696Z,21.02
2016-07-17T06:06:39.363Z,20.99
2016-07-17T06:07:37.339Z,21
2016-07-17T06:08:39.906Z,21.03
2016-07-17T06:09:37.367Z,21.11
2016-07-17T06:10:38.000Z,21.18
2016-07-17T06:11:36.831Z,21.37
2016-07-17T06:12:39.445Z,21.5
2016-07-17T06:13:37.365Z,21.52
2016-07-17T06:14:37.402Z,21.57
2016-07-17T06:15:48.867Z,21.48
2016-07-17T06:16:37.542Z,21.46
2016-07-17T06:17:37.390Z,21.42
2016-07-17T06:18:37.545Z,21.45
2016-07-17T06:19:37.371Z,21.36
2016-07-17T06:20:37.580Z,21.35
2016-07-17T06:21:37.560Z,21.39
2016-07-17T06:22:37.995Z,21.51
2016-07-17T06:23:37.479Z,21.57
2016-07-17T06:24:37.633Z,21.55
2016-07-17T06:25:37.612Z,21.57
2016-07-17T06:26:37.976Z,21.58
2016-07-17T06:27:37.513Z,21.48
2016-07-17T06:28:37.517Z,21.5
2016-07-17T06:29:37.919Z,21.55
2016-07-17T06:30:41.461Z,21.46
2016-07-17T06:31:37.451Z,21.6
2016-07-17T06:32:37.378Z,21.6
2016-07-17T06:33:37.411Z,21.57
2016-07-17T06:34:37.351Z,21.69
2016-07-17T06:35:37.609Z,21.73
2016-07-17T06:36:37.681Z,21.89
2016-07-17T06:37:37.672Z,21.96
2016-07-17T06:38:37.361Z,22.02
2016-07-17T06:39:37.678Z,22.02
2016-07-17T06:40:38.103Z,22.1
2016-07-17T06:41:37.837Z,21.96
2016-07-17T06:42:37.511Z,21.89
2016-07-17T06:43:38.801Z,22.04
2016-07-17T06:44:37.610Z,21.96
2016-07-17T06:45:37.347Z,21.83
2016-07-17T06:46:47.591Z,21.96
2016-07-17T06:47:37.359Z,21.92
2016-07-17T06:48:37.620Z,21.96
2016-07-17T06:49:37.586Z,21.82
2016-07-17T06:50:37.761Z,21.92
2016-07-17T06:51:37.389Z,21.83
2016-07-17T06:52:38.166Z,21.77
2016-07-17T06:53:37.400Z,21.67
2016-07-17T06:54:37.377Z,21.6
2016-07-17T06:55:38.718Z,21.58
2016-07-17T06:56:37.827Z,21.57
2016-07-17T06:57:37.395Z,21.43
2016-07-17T06:58:36.884Z,21.57
2016-07-17T06:59:37.368Z,21.48
2016-07-17T07:00:38.003Z,21.6
2016-07-17T07:01:47.532Z,21.64
2016-07-17T07:02:37.548Z,21.61
2016-07-17T07:03:37.415Z,21.61
2016-07-17T07:04:37.412Z,21.76
2016-07-17T07:05:43.400Z,21.72
2016-07-17T07:06:37.375Z,21.69
2016-07-17T07:07:37.483Z,21.73
2016-07-17T07:08:37.428Z,21.77
2016-07-17T07:09:42.817Z,21.72
2016-07-17T07:10:37.418Z,21.79
2016-07-17T07:11:37.408Z,21.83
2016-07-17T07:12:38.569Z,21.92
2016-07-17T07:13:38.569Z,21.91
2016-07-17T07:14:37.476Z,21.82
2016-07-17T07:15:40.090Z,21.91
2016-07-17T07:16:37.418Z,21.79
2016-07-17T07:17:37.416Z,21.8
2016-07-17T07:18:37.379Z,21.83
2016-07-17T07:19:37.437Z,21.77
2016-07-17T07:20:37.388Z,21.8
2016-07-17T07:21:37.382Z,21.7
2016-07-17T07:22:37.406Z,21.73
2016-07-17T07:23:37.539Z,21.67
2016-07-17T07:24:38.354Z,21.69
2016-07-17T07:25:37.552Z,21.83
2016-07-17T07:26:37.386Z,21.8
2016-07-17T07:27:37.490Z,21.89
2016-07-17T07:28:37.444Z,21.98
2016-07-17T07:29:37.418Z,22.07
2016-07-17T07:30:37.392Z,22.22
2016-07-17T07:31:37.405Z,22.18
2016-07-17T07:32:38.004Z,22.18
2016-07-17T07:33:38.260Z,22.3
2016-07-17T07:34:37.591Z,22.26
2016-07-17T07:35:37.531Z,22.36
2016-07-17T07:36:37.471Z,22.54
2016-07-17T07:37:48.529Z,22.75
2016-07-17T07:38:38.399Z,22.83
2016-07-17T07:39:37.414Z,22.88
2016-07-17T07:40:37.405Z,23.09
2016-07-17T07:41:37.480Z,23.12
2016-07-17T07:42:37.422Z,23.17
2016-07-17T07:43:37.439Z,23.24
2016-07-17T07:44:38.713Z,23.34
2016-07-17T07:45:37.360Z,23.4
2016-07-17T07:46:37.441Z,23.21
2016-07-17T07:47:37.430Z,23.23
2016-07-17T07:48:44.143Z,23.08
2016-07-17T07:49:37.835Z,23.03
2016-07-17T07:50:37.552Z,22.88
2016-07-17T07:51:37.740Z,22.72
2016-07-17T07:52:39.895Z,22.48
2016-07-17T07:53:37.441Z,22.57
2016-07-17T07:55:37.620Z,22.15
2016-07-17T07:56:37.418Z,22.15
2016-07-17T07:57:38.140Z,22.15
2016-07-17T07:58:37.473Z,22.28
2016-07-17T07:59:37.473Z,22.25
2016-07-17T08:00:37.758Z,22.25
2016-07-17T08:01:37.780Z,22.36
2016-07-17T08:02:37.763Z,22.35
2016-07-17T08:03:37.526Z,22.47
2016-07-17T08:04:37.431Z,22.3
2016-07-17T08:05:37.685Z,22.17
2016-07-17T08:06:37.859Z,22.3
2016-07-17T08:07:37.486Z,22.28
2016-07-17T08:08:40.960Z,22.15
2016-07-17T08:09:38.209Z,22.2
2016-07-17T08:10:37.407Z,22.3
2016-07-17T08:11:37.653Z,22.22
2016-07-17T08:12:37.513Z,22.17
2016-07-17T08:13:37.699Z,22.18
2016-07-17T08:14:37.841Z,22.2
2016-07-17T08:15:37.922Z,22.17
2016-07-17T08:16:37.441Z,22.07
2016-07-17T08:17:38.142Z,22.13
2016-07-17T08:19:09.723Z,22
2016-07-17T08:19:37.495Z,22.07
2016-07-17T08:20:37.504Z,22.04
2016-07-17T08:21:43.572Z,22.14
2016-07-17T08:22:37.728Z,22.1
2016-07-17T08:23:37.413Z,22.26
2016-07-17T08:24:37.459Z,22.3
2016-07-17T08:25:37.446Z,22.25
2016-07-17T08:26:39.936Z,22.28
2016-07-17T08:27:38.096Z,22.26
2016-07-17T08:28:38.716Z,22.2
2016-07-17T08:29:37.636Z,22.23
2016-07-17T08:30:37.454Z,22.22
2016-07-17T08:31:37.565Z,22.23
2016-07-17T08:32:37.512Z,22.3
2016-07-17T08:33:37.621Z,22.28
2016-07-17T08:34:37.465Z,22.22
2016-07-17T08:35:37.519Z,22.22
2016-07-17T08:36:37.597Z,22.28
2016-07-17T08:37:37.960Z,22.2
2016-07-17T08:38:38.910Z,22.32
2016-07-17T08:39:38.271Z,22.54
2016-07-17T08:40:37.761Z,22.8
2016-07-17T08:41:37.671Z,23.68
2016-07-17T08:42:37.467Z,24.68
2016-07-17T08:43:38.567Z,25.16
2016-07-17T08:44:37.499Z,26.03
2016-07-17T08:45:37.865Z,26.36
2016-07-17T08:46:37.462Z,26.95
2016-07-17T08:47:38.939Z,27.11
2016-07-17T08:48:37.506Z,26.77
2016-07-17T08:49:37.486Z,26.13
2016-07-17T08:50:37.529Z,25.84
2016-07-17T08:51:37.476Z,26.43
2016-07-17T08:52:37.490Z,27.11
2016-07-17T08:53:37.533Z,27.87
2016-07-17T08:54:37.551Z,27.51
2016-07-17T08:55:37.431Z,26.7
2016-07-17T08:56:39.746Z,26.36
2016-07-17T08:57:37.465Z,25.72
2016-07-17T08:58:37.518Z,25.36
2016-07-17T08:59:37.609Z,24.7
2016-07-17T09:00:37.491Z,24.65
2016-07-17T09:01:37.528Z,24.53
2016-07-17T09:02:37.389Z,24.39
2016-07-17T09:03:37.623Z,24.18
2016-07-17T09:04:37.489Z,24.21
2016-07-17T09:05:37.468Z,24.14
2016-07-17T09:06:37.469Z,23.71
2016-07-17T09:07:37.481Z,23.58
2016-07-17T09:08:37.508Z,23.48
2016-07-17T09:09:37.679Z,23.54
2016-07-17T09:10:50.578Z,23.61
2016-07-17T09:11:38.380Z,23.43
2016-07-17T09:12:40.736Z,23.51
2016-07-17T09:13:37.834Z,23.48
2016-07-17T09:14:37.501Z,23.37
2016-07-17T09:15:39.012Z,23.27
2016-07-17T09:16:37.467Z,23.24
2016-07-17T09:17:37.545Z,23.28
2016-07-17T09:18:37.470Z,23.43
2016-07-17T09:19:37.476Z,23.56
2016-07-17T09:20:37.477Z,23.96
2016-07-17T09:21:37.477Z,24.42
2016-07-17T09:22:38.728Z,24.5
2016-07-17T09:23:37.595Z,24.14
2016-07-17T09:24:37.524Z,24.26
2016-07-17T09:25:37.486Z,24.14
2016-07-17T09:26:38.260Z,24.53
2016-07-17T09:27:37.501Z,25.44
2016-07-17T09:29:13.838Z,25.66
2016-07-17T09:29:42.886Z,25.54
2016-07-17T09:30:37.566Z,25.17
2016-07-17T09:31:38.015Z,25.03
2016-07-17T09:32:37.507Z,24.81
2016-07-17T09:33:41.873Z,24.89
2016-07-17T09:34:37.534Z,25.22
2016-07-17T09:36:03.887Z,24.95
2016-07-17T09:36:37.571Z,24.7
2016-07-17T09:37:38.590Z,24.55
2016-07-17T09:38:37.559Z,24.55
2016-07-17T09:39:37.850Z,24.65
2016-07-17T09:40:49.057Z,25.17
2016-07-17T09:41:37.521Z,25.32
2016-07-17T09:42:38.736Z,25.29
2016-07-17T09:43:37.477Z,24.77
2016-07-17T09:44:37.530Z,24.73
2016-07-17T09:45:41.540Z,24.85
2016-07-17T09:46:47.304Z,24.54
2016-07-17T09:47:46.313Z,25.31
2016-07-17T09:48:46.591Z,25.6
2016-07-17T09:49:46.278Z,26.15
2016-07-17T09:51:12.971Z,26.23
2016-07-17T09:51:46.345Z,26.31
2016-07-17T09:52:56.338Z,26.85
2016-07-17T09:53:53.428Z,27.54
2016-07-17T09:55:35.183Z,27.86
2016-07-17T09:55:52.705Z,27.85
2016-07-17T09:56:52.308Z,27.8
2016-07-17T09:57:52.286Z,28.12
2016-07-17T09:58:52.273Z,28.47
2016-07-17T09:59:52.290Z,28.76
2016-07-17T10:00:53.425Z,28.26
2016-07-17T10:01:52.703Z,28.1
2016-07-17T10:02:52.355Z,27.7
2016-07-17T10:03:59.730Z,27.21
2016-07-17T10:04:52.349Z,27.17
2016-07-17T10:06:17.230Z,27.68
2016-07-17T10:06:52.305Z,28.07
2016-07-17T10:07:52.288Z,28.86
2016-07-17T10:09:05.828Z,29.19
2016-07-17T10:09:52.360Z,29.75
2016-07-17T10:10:52.286Z,29.61
2016-07-17T10:11:52.453Z,29.27
2016-07-17T10:12:52.360Z,28.51
2016-07-17T10:13:52.424Z,28.11
2016-07-17T10:14:52.296Z,27.96
2016-07-17T10:15:57.632Z,27.47
2016-07-17T10:16:52.319Z,27.54
2016-07-17T10:17:52.571Z,27.73
2016-07-17T10:18:52.312Z,27.86
2016-07-17T10:20:40.005Z,27.39
2016-07-17T10:24:30.130Z,26.97
2016-07-17T10:25:30.069Z,26.34
2016-07-17T10:26:31.587Z,25.91
2016-07-17T10:27:46.427Z,25.58
2016-07-17T10:28:30.070Z,25.8
2016-07-17T10:29:30.029Z,25.53
2016-07-17T10:30:30.875Z,26.18
2016-07-17T10:31:30.386Z,26
2016-07-17T10:32:51.312Z,25.99
2016-07-17T10:33:49.809Z,26.13
2016-07-17T10:34:45.142Z,26.05
2016-07-17T10:35:49.736Z,25.83
2016-07-17T10:37:05.756Z,25.78
2016-07-17T10:37:58.578Z,25.53
2016-07-17T10:38:58.762Z,25.72
2016-07-17T10:40:03.918Z,26.33
2016-07-17T10:40:58.785Z,26.29
2016-07-17T10:41:59.552Z,26.21
2016-07-17T10:42:58.792Z,26.15
2016-07-17T10:44:02.515Z,25.91
2016-07-17T10:44:59.016Z,26.43
2016-07-17T10:46:02.871Z,26.75
2016-07-17T10:55:20.485Z,27.68
2016-07-17T10:56:20.506Z,27.45
2016-07-17T10:57:21.907Z,26.92
2016-07-17T10:58:26.813Z,26.25
2016-07-17T10:59:46.246Z,25.77
2016-07-17T11:00:20.583Z,25.84
2016-07-17T11:01:20.611Z,26.31
2016-07-17T11:02:20.552Z,26.59
2016-07-17T11:03:20.564Z,26.41
2016-07-17T11:04:20.503Z,26.36
2016-07-17T11:05:20.576Z,27.21
2016-07-17T11:06:20.530Z,28.05
2016-07-17T11:07:21.009Z,28.23
2016-07-17T11:08:20.554Z,27.78
2016-07-17T11:09:36.913Z,27.25
2016-07-17T11:10:20.574Z,27.02
2016-07-17T11:11:23.750Z,26.75
2016-07-17T11:12:21.796Z,26.8
2016-07-17T11:13:20.872Z,26.77
2016-07-17T11:26:07.172Z,25.62
2016-07-17T11:38:26.033Z,26.95
2016-07-17T11:39:34.707Z,26.68
2016-07-17T11:40:25.935Z,26.77
2016-07-17T11:41:25.802Z,26.63
2016-07-17T11:42:25.763Z,26.56
2016-07-17T11:43:54.377Z,26.83
2016-07-17T11:44:33.944Z,26.9
2016-07-17T11:45:45.678Z,27.02
2016-07-17T11:46:35.918Z,27.02
2016-07-17T11:48:25.818Z,27.02
2016-07-17T11:57:49.659Z,28.88
2016-07-17T11:58:45.213Z,29.23
2016-07-17T12:00:17.069Z,29.76
2016-07-17T12:00:50.967Z,30
2016-07-17T12:01:44.869Z,30.44
2016-07-17T12:02:46.428Z,30.4
2016-07-17T12:03:44.829Z,30.24
2016-07-17T12:04:45.327Z,30.55
2016-07-17T12:05:44.798Z,30.37
2016-07-17T12:06:45.091Z,29.9
2016-07-17T12:07:48.172Z,29.32
2016-07-17T12:09:11.435Z,29.27
2016-07-17T12:09:55.035Z,29.49
2016-07-17T12:10:44.783Z,29.17
2016-07-17T12:11:44.732Z,28.64
2016-07-17T12:12:44.772Z,28.39
2016-07-17T12:13:44.779Z,28.19
2016-07-17T12:16:12.777Z,27.25
2016-07-17T12:16:37.913Z,26.92
2016-07-17T12:17:37.823Z,26.83
2016-07-17T12:19:04.246Z,26.56
2016-07-17T12:19:37.823Z,26.58
2016-07-17T12:20:48.349Z,26.8
2016-07-17T12:33:39.751Z,27.78
2016-07-17T12:34:14.027Z,28.23
2016-07-17T12:35:10.979Z,28
2016-07-17T12:36:14.296Z,27.64
2016-07-17T12:37:19.099Z,27.17
2016-07-17T12:38:31.015Z,26.95
2016-07-17T12:39:10.978Z,26.74
2016-07-17T12:40:10.959Z,26.85
2016-07-17T12:41:10.952Z,27.22
2016-07-17T12:42:11.000Z,27.21
2016-07-17T12:43:10.963Z,27.07
2016-07-17T12:44:11.025Z,27.44
2016-07-17T12:45:49.801Z,28.26
2016-07-17T12:46:19.572Z,28.39
2016-07-17T12:48:06.997Z,28.94
2016-07-17T12:48:27.055Z,28.84
2016-07-17T12:49:25.525Z,28.78
2016-07-17T12:50:24.044Z,28.45
2016-07-17T12:51:25.951Z,27.8
2016-07-17T12:52:24.080Z,26.88
2016-07-17T12:53:25.896Z,27.4
2016-07-17T12:54:26.179Z,27.82
2016-07-17T12:55:25.074Z,27.82
2016-07-17T12:56:26.646Z,27.86
2016-07-17T12:57:24.124Z,27.95
2016-07-17T12:58:24.085Z,28.37
2016-07-17T12:59:27.358Z,28.82
2016-07-17T13:00:24.060Z,29.44
2016-07-17T13:01:24.110Z,29.88
2016-07-17T13:02:34.173Z,30.06
2016-07-17T13:03:26.038Z,29.97
2016-07-17T13:04:24.086Z,30.21
2016-07-17T13:05:24.145Z,30.54
2016-07-17T13:06:24.799Z,30.44
2016-07-17T13:07:24.050Z,30.55
2016-07-17T13:08:24.068Z,30.73
2016-07-17T13:09:24.130Z,29.84
2016-07-17T13:10:24.454Z,28.82
2016-07-17T13:11:24.120Z,28.56
2016-07-17T13:12:24.191Z,28.94
2016-07-17T13:13:38.973Z,29.22
2016-07-17T13:14:27.529Z,28.85
2016-07-17T13:15:26.859Z,28.08
2016-07-17T13:16:24.065Z,27.54
2016-07-17T13:17:26.243Z,27.08
2016-07-17T13:18:26.876Z,26.38
2016-07-17T13:19:24.094Z,26.33
2016-07-17T13:20:26.522Z,25.84
2016-07-17T13:21:24.095Z,25.7
2016-07-17T13:22:24.109Z,25.68
2016-07-17T13:23:24.073Z,25.66
2016-07-17T13:24:25.720Z,25.62
2016-07-17T13:25:29.491Z,26.13
2016-07-17T13:26:27.992Z,26.83
2016-07-17T13:28:53.952Z,27.48
2016-07-17T13:29:53.987Z,27.96
2016-07-17T13:30:54.154Z,27.89
2016-07-17T13:31:53.965Z,27.7
2016-07-17T13:32:54.053Z,27.68
2016-07-17T13:33:53.950Z,27.73
2016-07-17T13:34:53.991Z,28.05
2016-07-17T13:35:54.109Z,28.49
2016-07-17T13:36:54.012Z,28.78
2016-07-17T13:37:58.725Z,28.79
2016-07-17T13:39:33.985Z,28.54
2016-07-17T13:39:53.976Z,28.78
2016-07-17T13:40:53.987Z,28.85
2016-07-17T13:41:53.952Z,29.1
2016-07-17T13:42:53.958Z,29.34
2016-07-17T13:44:37.146Z,29.01
2016-07-17T13:45:23.404Z,29.08
2016-07-17T13:47:26.768Z,29.54
2016-07-17T13:52:04.910Z,29.02
2016-07-17T13:54:14.105Z,28.25
2016-07-17T13:58:51.893Z,27.21
2016-07-17T13:59:45.177Z,27.14
2016-07-17T14:00:15.442Z,27.35
2016-07-17T14:01:31.599Z,27.78
2016-07-17T14:02:22.350Z,28.14
2016-07-17T14:03:22.276Z,28.67
2016-07-17T14:04:22.267Z,29.13
2016-07-17T14:05:22.251Z,29.27
2016-07-17T14:06:22.303Z,28.79
2016-07-17T14:07:32.403Z,28.17
2016-07-17T14:08:57.184Z,27.95
2016-07-17T14:09:25.779Z,27.83
2016-07-17T14:10:26.441Z,27.54
2016-07-17T14:11:22.916Z,27.39
2016-07-17T14:12:22.884Z,27.17
2016-07-17T14:13:22.989Z,27.03
2016-07-17T14:14:27.187Z,26.65
2016-07-17T14:16:02.782Z,26.41
2016-07-17T14:16:35.646Z,26.56
2016-07-17T14:17:33.136Z,26.7
2016-07-17T14:18:33.080Z,26.68
2016-07-17T14:19:35.836Z,26.63
2016-07-17T14:20:33.035Z,26.48
2016-07-17T14:21:33.080Z,26.63
2016-07-17T14:22:33.652Z,26.66
2016-07-17T14:23:52.781Z,26.59
2016-07-17T14:24:49.318Z,26.41
2016-07-17T14:25:33.346Z,26.29
2016-07-17T14:26:48.954Z,26.18
2016-07-17T14:27:33.149Z,26.06
2016-07-17T14:28:33.056Z,26.03
2016-07-17T14:29:33.091Z,25.93
2016-07-17T14:30:33.172Z,25.95
2016-07-17T14:31:33.951Z,26.06
2016-07-17T14:32:36.323Z,26.1
2016-07-17T14:33:33.044Z,26.05
2016-07-17T14:34:33.798Z,26.13
2016-07-17T14:35:33.143Z,26.26
2016-07-17T14:36:33.070Z,26.25
2016-07-17T14:37:33.614Z,26.23
2016-07-17T14:38:33.545Z,26.23
2016-07-17T14:39:42.986Z,26.05
2016-07-17T14:43:29.885Z,25.68
2016-07-17T14:44:40.935Z,25.62
2016-07-17T14:45:48.409Z,25.55
2016-07-17T14:46:52.380Z,25.6
2016-07-17T14:47:35.426Z,25.68
2016-07-17T14:49:19.220Z,25.84
2016-07-17T14:51:14.729Z,25.87
2016-07-17T14:52:54.305Z,25.83
2016-07-17T14:53:19.673Z,25.84
2016-07-17T14:54:39.347Z,25.84
2016-07-17T14:55:16.895Z,25.81
2016-07-17T14:56:28.881Z,25.77
2016-07-17T14:57:27.556Z,25.73
2016-07-17T14:58:15.079Z,25.69